Fecha, hora, temperatura, viento dirección y velocidad, humedad y presión.

  • 22-05-2019 17:00:00 | 14.50°C | Noroeste |14.00 km/h | 64.00% | 852.00 hPa
  • 22-05-2019 16:00:00 | 14.80°C | Noroeste |16.00 km/h | 65.00% | 851.90 hPa
  • 22-05-2019 15:00:00 | 15.50°C | Norte |8.00 km/h | 55.00% | 852.00 hPa
  • 22-05-2019 14:00:00 | 16.20°C | Oeste |6.00 km/h | 44.00% | 852.00 hPa
  • 22-05-2019 13:00:00 | 15.00°C | Oeste |8.00 km/h | 45.00% | 852.10 hPa
  • 22-05-2019 12:00:00 | 14.50°C | Oeste |10.00 km/h | 47.00% | 852.00 hPa
  • 22-05-2019 11:00:00 | 14.70°C | Este |10.00 km/h | 55.00% | 851.90 hPa
  • 22-05-2019 10:00:00 | 12.50°C | Este |9.00 km/h | 62.00% | 851.80 hPa
  • 22-05-2019 09:00:00 | 10.00°C | Este |6.00 km/h | 69.00% | 851.80 hPa
  • 22-05-2019 08:00:00 | 4.50°C | Noroeste |2.00 km/h | 86.00% | 851.50 hPa
  • 22-05-2019 07:00:00 | 3.30°C | Noroeste |2.00 km/h | 85.00% | 851.30 hPa
  • 22-05-2019 06:00:00 | 3.80°C | Sur |4.00 km/h | 85.00% | 851.40 hPa
  • 22-05-2019 05:00:00 | 3.90°C | Noroeste |3.00 km/h | 84.00% | 851.60 hPa
  • 22-05-2019 04:00:00 | 3.20°C | Noroeste |4.00 km/h | 87.00% | 851.70 hPa
  • 22-05-2019 03:00:00 | 3.40°C | Oeste |5.00 km/h | 85.00% | 851.70 hPa
  • 22-05-2019 02:00:00 | 3.60°C | Oeste |4.00 km/h | 85.00% | 851.80 hPa
  • 22-05-2019 01:00:00 | 4.30°C | Noroeste |6.00 km/h | 85.00% | 851.80 hPa
  • 22-05-2019 00:00:00 | 6.20°C | Oeste |6.00 km/h | 87.00% | 852.00 hPa
  • 21-05-2019 23:00:00 | 8.20°C | Noroeste |3.00 km/h | 88.00% | 851.90 hPa
  • 21-05-2019 22:00:00 | 7.90°C | Noroeste |10.00 km/h | 92.00% | 851.40 hPa
  • 21-05-2019 21:00:00 | 8.50°C | Oeste |12.00 km/h | 90.00% | 851.10 hPa
  • 21-05-2019 20:00:00 | 9.50°C | Oeste |14.00 km/h | 85.00% | 850.80 hPa
  • 21-05-2019 19:00:00 | 11.30°C | Noroeste |13.00 km/h | 78.00% | 850.60 hPa
  • 21-05-2019 18:00:00 | 12.20°C | Oeste |17.00 km/h | 76.00% | 850.50 hPa
    • diseño web asturias Información sobre el estado de las mareas, altura de la marejada, temperatura del agua y otros datos de Gijón en Asturias.

      Surf Gijón